sensor_id;sensor_type;location;lat;lon;timestamp;pressure;altitude;pressure_sealevel;temperature
16956;BMP180;8594;52.052;8.354;2023-04-07T00:00:27;100573.00;;;11.50
16956;BMP180;8594;52.052;8.354;2023-04-07T00:02:54;100570.00;;;11.80
16956;BMP180;8594;52.052;8.354;2023-04-07T00:05:21;100557.00;;;11.80
16956;BMP180;8594;52.052;8.354;2023-04-07T00:07:49;100561.00;;;11.70
16956;BMP180;8594;52.052;8.354;2023-04-07T00:10:16;100557.00;;;11.90
16956;BMP180;8594;52.052;8.354;2023-04-07T00:12:42;100555.00;;;12.10
16956;BMP180;8594;52.052;8.354;2023-04-07T00:15:10;100554.00;;;12.10
16956;BMP180;8594;52.052;8.354;2023-04-07T00:17:38;100551.00;;;11.90
16956;BMP180;8594;52.052;8.354;2023-04-07T00:20:06;100560.00;;;11.70
16956;BMP180;8594;52.052;8.354;2023-04-07T00:22:33;100556.00;;;11.80
16956;BMP180;8594;52.052;8.354;2023-04-07T00:25:00;100554.00;;;11.50
16956;BMP180;8594;52.052;8.354;2023-04-07T00:27:27;100547.00;;;11.20
16956;BMP180;8594;52.052;8.354;2023-04-07T00:29:54;100546.00;;;11.20
16956;BMP180;8594;52.052;8.354;2023-04-07T00:32:21;100547.00;;;11.30
16956;BMP180;8594;52.052;8.354;2023-04-07T00:34:49;100542.00;;;10.80
16956;BMP180;8594;52.052;8.354;2023-04-07T00:37:16;100539.00;;;10.90
16956;BMP180;8594;52.052;8.354;2023-04-07T00:39:43;100546.00;;;11.00
16956;BMP180;8594;52.052;8.354;2023-04-07T00:42:11;100536.00;;;11.00
16956;BMP180;8594;52.052;8.354;2023-04-07T00:44:37;100542.00;;;11.10
16956;BMP180;8594;52.052;8.354;2023-04-07T00:47:05;100543.00;;;10.70
16956;BMP180;8594;52.052;8.354;2023-04-07T00:49:31;100542.00;;;10.60
16956;BMP180;8594;52.052;8.354;2023-04-07T00:52:00;100538.00;;;10.80
16956;BMP180;8594;52.052;8.354;2023-04-07T00:54:29;100527.00;;;10.90
16956;BMP180;8594;52.052;8.354;2023-04-07T00:56:56;100535.00;;;10.40
16956;BMP180;8594;52.052;8.354;2023-04-07T00:59:24;100527.00;;;10.70
16956;BMP180;8594;52.052;8.354;2023-04-07T01:02:00;100530.00;;;10.40
16956;BMP180;8594;52.052;8.354;2023-04-07T01:04:37;100520.00;;;10.80
16956;BMP180;8594;52.052;8.354;2023-04-07T01:07:16;100532.00;;;10.50
16956;BMP180;8594;52.052;8.354;2023-04-07T01:09:53;100523.00;;;10.50
16956;BMP180;8594;52.052;8.354;2023-04-07T01:12:33;100520.00;;;10.60
16956;BMP180;8594;52.052;8.354;2023-04-07T01:15:08;100516.00;;;10.50
16956;BMP180;8594;52.052;8.354;2023-04-07T01:17:38;100507.00;;;10.40
16956;BMP180;8594;52.052;8.354;2023-04-07T01:20:13;100511.00;;;10.20
16956;BMP180;8594;52.052;8.354;2023-04-07T01:22:46;100516.00;;;10.10
16956;BMP180;8594;52.052;8.354;2023-04-07T01:25:34;100524.00;;;10.50
16956;BMP180;8594;52.052;8.354;2023-04-07T01:28:33;100514.00;;;10.10
16956;BMP180;8594;52.052;8.354;2023-04-07T01:31:09;100509.00;;;9.90
16956;BMP180;8594;52.052;8.354;2023-04-07T01:33:38;100509.00;;;10.50
16956;BMP180;8594;52.052;8.354;2023-04-07T01:36:11;100509.00;;;10.40
16956;BMP180;8594;52.052;8.354;2023-04-07T01:38:39;100500.00;;;10.40
16956;BMP180;8594;52.052;8.354;2023-04-07T01:41:08;100505.00;;;10.60
16956;BMP180;8594;52.052;8.354;2023-04-07T01:43:38;100510.00;;;10.60
16956;BMP180;8594;52.052;8.354;2023-04-07T01:46:07;100502.00;;;10.50
16956;BMP180;8594;52.052;8.354;2023-04-07T01:48:35;100505.00;;;10.70
16956;BMP180;8594;52.052;8.354;2023-04-07T01:51:04;100505.00;;;10.30
16956;BMP180;8594;52.052;8.354;2023-04-07T01:53:33;100497.00;;;10.50
16956;BMP180;8594;52.052;8.354;2023-04-07T01:56:02;100502.00;;;10.60
16956;BMP180;8594;52.052;8.354;2023-04-07T01:58:29;100494.00;;;10.70
16956;BMP180;8594;52.052;8.354;2023-04-07T02:00:56;100491.00;;;10.70
16956;BMP180;8594;52.052;8.354;2023-04-07T02:03:35;100496.00;;;10.70
16956;BMP180;8594;52.052;8.354;2023-04-07T02:06:08;100494.00;;;10.70
16956;BMP180;8594;52.052;8.354;2023-04-07T02:08:48;100493.00;;;10.90
16956;BMP180;8594;52.052;8.354;2023-04-07T02:11:19;100488.00;;;10.50
16956;BMP180;8594;52.052;8.354;2023-04-07T02:13:47;100485.00;;;10.60
16956;BMP180;8594;52.052;8.354;2023-04-07T02:16:17;100497.00;;;10.70
16956;BMP180;8594;52.052;8.354;2023-04-07T02:18:47;100497.00;;;10.50
16956;BMP180;8594;52.052;8.354;2023-04-07T02:21:15;100483.00;;;10.40
16956;BMP180;8594;52.052;8.354;2023-04-07T02:23:43;100495.00;;;10.30
16956;BMP180;8594;52.052;8.354;2023-04-07T02:26:09;100486.00;;;10.40
16956;BMP180;8594;52.052;8.354;2023-04-07T02:28:36;100486.00;;;10.70
16956;BMP180;8594;52.052;8.354;2023-04-07T02:31:03;100485.00;;;10.10
16956;BMP180;8594;52.052;8.354;2023-04-07T02:33:30;100486.00;;;10.30
16956;BMP180;8594;52.052;8.354;2023-04-07T02:35:59;100487.00;;;10.60
16956;BMP180;8594;52.052;8.354;2023-04-07T02:38:26;100492.00;;;10.50
16956;BMP180;8594;52.052;8.354;2023-04-07T02:40:53;100489.00;;;10.40
16956;BMP180;8594;52.052;8.354;2023-04-07T02:43:20;100488.00;;;10.20
16956;BMP180;8594;52.052;8.354;2023-04-07T02:45:47;100490.00;;;10.40
16956;BMP180;8594;52.052;8.354;2023-04-07T02:48:14;100493.00;;;10.10
16956;BMP180;8594;52.052;8.354;2023-04-07T02:50:40;100482.00;;;10.10
16956;BMP180;8594;52.052;8.354;2023-04-07T02:53:08;100489.00;;;10.00
16956;BMP180;8594;52.052;8.354;2023-04-07T02:55:35;100486.00;;;9.80
16956;BMP180;8594;52.052;8.354;2023-04-07T02:58:02;100489.00;;;9.70
16956;BMP180;8594;52.052;8.354;2023-04-07T03:00:29;100503.00;;;9.60
16956;BMP180;8594;52.052;8.354;2023-04-07T03:02:56;100488.00;;;9.70
16956;BMP180;8594;52.052;8.354;2023-04-07T03:05:23;100497.00;;;9.80
16956;BMP180;8594;52.052;8.354;2023-04-07T03:07:49;100491.00;;;9.70
16956;BMP180;8594;52.052;8.354;2023-04-07T03:10:18;100494.00;;;9.70
16956;BMP180;8594;52.052;8.354;2023-04-07T03:12:44;100491.00;;;9.70
16956;BMP180;8594;52.052;8.354;2023-04-07T03:15:11;100491.00;;;9.80
16956;BMP180;8594;52.052;8.354;2023-04-07T03:17:38;100492.00;;;9.60
16956;BMP180;8594;52.052;8.354;2023-04-07T03:20:07;100483.00;;;9.80
16956;BMP180;8594;52.052;8.354;2023-04-07T03:22:34;100491.00;;;9.70
16956;BMP180;8594;52.052;8.354;2023-04-07T03:25:00;100495.00;;;9.80
16956;BMP180;8594;52.052;8.354;2023-04-07T03:27:28;100487.00;;;9.60
16956;BMP180;8594;52.052;8.354;2023-04-07T03:29:56;100479.00;;;9.60
16956;BMP180;8594;52.052;8.354;2023-04-07T03:32:23;100486.00;;;9.80
16956;BMP180;8594;52.052;8.354;2023-04-07T03:34:50;100488.00;;;9.60
16956;BMP180;8594;52.052;8.354;2023-04-07T03:37:16;100486.00;;;9.40
16956;BMP180;8594;52.052;8.354;2023-04-07T03:39:43;100489.00;;;9.40
16956;BMP180;8594;52.052;8.354;2023-04-07T03:42:10;100476.00;;;9.70
16956;BMP180;8594;52.052;8.354;2023-04-07T03:44:38;100483.00;;;9.70
16956;BMP180;8594;52.052;8.354;2023-04-07T03:47:05;100483.00;;;9.50
16956;BMP180;8594;52.052;8.354;2023-04-07T03:49:32;100489.00;;;9.70
16956;BMP180;8594;52.052;8.354;2023-04-07T03:51:59;100485.00;;;9.70
16956;BMP180;8594;52.052;8.354;2023-04-07T03:54:25;100486.00;;;9.60
16956;BMP180;8594;52.052;8.354;2023-04-07T03:56:52;100485.00;;;9.40
16956;BMP180;8594;52.052;8.354;2023-04-07T03:59:19;100486.00;;;9.50
16956;BMP180;8594;52.052;8.354;2023-04-07T04:01:47;100492.00;;;9.40
16956;BMP180;8594;52.052;8.354;2023-04-07T04:04:14;100492.00;;;9.40
16956;BMP180;8594;52.052;8.354;2023-04-07T04:06:41;100489.00;;;9.40
16956;BMP180;8594;52.052;8.354;2023-04-07T04:09:08;100494.00;;;9.40
16956;BMP180;8594;52.052;8.354;2023-04-07T04:11:34;100489.00;;;9.30
16956;BMP180;8594;52.052;8.354;2023-04-07T04:14:01;100495.00;;;9.00
16956;BMP180;8594;52.052;8.354;2023-04-07T04:16:28;100495.00;;;9.10
16956;BMP180;8594;52.052;8.354;2023-04-07T04:18:57;100494.00;;;9.30
16956;BMP180;8594;52.052;8.354;2023-04-07T04:21:24;100498.00;;;9.20
16956;BMP180;8594;52.052;8.354;2023-04-07T04:23:52;100498.00;;;9.40
16956;BMP180;8594;52.052;8.354;2023-04-07T04:26:18;100484.00;;;9.10
16956;BMP180;8594;52.052;8.354;2023-04-07T04:28:50;100487.00;;;9.10
16956;BMP180;8594;52.052;8.354;2023-04-07T04:31:19;100497.00;;;9.20
16956;BMP180;8594;52.052;8.354;2023-04-07T04:33:46;100495.00;;;8.90
16956;BMP180;8594;52.052;8.354;2023-04-07T04:36:14;100496.00;;;9.00
16956;BMP180;8594;52.052;8.354;2023-04-07T04:38:41;100498.00;;;8.80
16956;BMP180;8594;52.052;8.354;2023-04-07T04:41:08;100502.00;;;9.10
16956;BMP180;8594;52.052;8.354;2023-04-07T04:43:35;100505.00;;;9.00
16956;BMP180;8594;52.052;8.354;2023-04-07T04:46:01;100505.00;;;9.00
16956;BMP180;8594;52.052;8.354;2023-04-07T04:48:28;100510.00;;;9.30
16956;BMP180;8594;52.052;8.354;2023-04-07T04:50:55;100506.00;;;9.00
16956;BMP180;8594;52.052;8.354;2023-04-07T04:53:23;100501.00;;;8.80
16956;BMP180;8594;52.052;8.354;2023-04-07T04:55:50;100521.00;;;8.90
16956;BMP180;8594;52.052;8.354;2023-04-07T04:58:18;100511.00;;;9.20
16956;BMP180;8594;52.052;8.354;2023-04-07T05:00:45;100516.00;;;9.30
16956;BMP180;8594;52.052;8.354;2023-04-07T05:03:12;100516.00;;;9.50
16956;BMP180;8594;52.052;8.354;2023-04-07T05:05:38;100516.00;;;9.40
16956;BMP180;8594;52.052;8.354;2023-04-07T05:08:05;100522.00;;;9.30
16956;BMP180;8594;52.052;8.354;2023-04-07T05:10:37;100518.00;;;9.20
16956;BMP180;8594;52.052;8.354;2023-04-07T05:13:05;100518.00;;;9.10
16956;BMP180;8594;52.052;8.354;2023-04-07T05:15:32;100518.00;;;9.00
16956;BMP180;8594;52.052;8.354;2023-04-07T05:17:59;100521.00;;;9.20
16956;BMP180;8594;52.052;8.354;2023-04-07T05:20:26;100513.00;;;8.90
16956;BMP180;8594;52.052;8.354;2023-04-07T05:22:53;100522.00;;;9.10
16956;BMP180;8594;52.052;8.354;2023-04-07T05:25:20;100519.00;;;9.00
16956;BMP180;8594;52.052;8.354;2023-04-07T05:27:48;100515.00;;;9.10
16956;BMP180;8594;52.052;8.354;2023-04-07T05:30:15;100519.00;;;9.00
16956;BMP180;8594;52.052;8.354;2023-04-07T05:32:42;100515.00;;;9.20
16956;BMP180;8594;52.052;8.354;2023-04-07T05:35:09;100518.00;;;9.10
16956;BMP180;8594;52.052;8.354;2023-04-07T05:37:36;100535.00;;;9.10
16956;BMP180;8594;52.052;8.354;2023-04-07T05:40:04;100521.00;;;9.30
16956;BMP180;8594;52.052;8.354;2023-04-07T05:42:31;100525.00;;;9.20
16956;BMP180;8594;52.052;8.354;2023-04-07T05:45:03;100530.00;;;9.20
16956;BMP180;8594;52.052;8.354;2023-04-07T05:47:30;100526.00;;;9.40
16956;BMP180;8594;52.052;8.354;2023-04-07T05:49:57;100526.00;;;9.50
16956;BMP180;8594;52.052;8.354;2023-04-07T05:52:23;100532.00;;;9.30
16956;BMP180;8594;52.052;8.354;2023-04-07T05:54:50;100527.00;;;9.30
16956;BMP180;8594;52.052;8.354;2023-04-07T05:57:17;100528.00;;;9.30
16956;BMP180;8594;52.052;8.354;2023-04-07T05:59:44;100540.00;;;9.30
16956;BMP180;8594;52.052;8.354;2023-04-07T06:02:13;100529.00;;;9.20
16956;BMP180;8594;52.052;8.354;2023-04-07T06:04:40;100532.00;;;9.30
16956;BMP180;8594;52.052;8.354;2023-04-07T06:07:06;100539.00;;;9.70
16956;BMP180;8594;52.052;8.354;2023-04-07T06:09:33;100544.00;;;9.20
16956;BMP180;8594;52.052;8.354;2023-04-07T06:12:00;100548.00;;;9.30
16956;BMP180;8594;52.052;8.354;2023-04-07T06:14:29;100548.00;;;9.20
16956;BMP180;8594;52.052;8.354;2023-04-07T06:16:56;100549.00;;;9.20
16956;BMP180;8594;52.052;8.354;2023-04-07T06:19:24;100551.00;;;9.00
16956;BMP180;8594;52.052;8.354;2023-04-07T06:21:52;100548.00;;;9.10
16956;BMP180;8594;52.052;8.354;2023-04-07T06:24:19;100559.00;;;9.20
16956;BMP180;8594;52.052;8.354;2023-04-07T06:26:49;100560.00;;;9.10
16956;BMP180;8594;52.052;8.354;2023-04-07T06:29:16;100556.00;;;9.20
16956;BMP180;8594;52.052;8.354;2023-04-07T06:31:43;100563.00;;;9.20
16956;BMP180;8594;52.052;8.354;2023-04-07T06:34:10;100568.00;;;8.90
16956;BMP180;8594;52.052;8.354;2023-04-07T06:36:38;100565.00;;;8.90
16956;BMP180;8594;52.052;8.354;2023-04-07T06:39:05;100561.00;;;9.30
16956;BMP180;8594;52.052;8.354;2023-04-07T06:41:32;100571.00;;;9.50
16956;BMP180;8594;52.052;8.354;2023-04-07T06:43:59;100571.00;;;9.30
16956;BMP180;8594;52.052;8.354;2023-04-07T06:46:25;100570.00;;;9.00
16956;BMP180;8594;52.052;8.354;2023-04-07T06:48:52;100570.00;;;9.20
16956;BMP180;8594;52.052;8.354;2023-04-07T06:51:20;100576.00;;;9.20
16956;BMP180;8594;52.052;8.354;2023-04-07T06:53:48;100574.00;;;9.50
16956;BMP180;8594;52.052;8.354;2023-04-07T06:56:15;100587.00;;;9.60
16956;BMP180;8594;52.052;8.354;2023-04-07T06:58:42;100580.00;;;9.60
16956;BMP180;8594;52.052;8.354;2023-04-07T07:01:09;100593.00;;;9.40
16956;BMP180;8594;52.052;8.354;2023-04-07T07:03:35;100588.00;;;9.30
16956;BMP180;8594;52.052;8.354;2023-04-07T07:06:02;100595.00;;;9.60
16956;BMP180;8594;52.052;8.354;2023-04-07T07:08:30;100598.00;;;9.70
16956;BMP180;8594;52.052;8.354;2023-04-07T07:10:58;100606.00;;;10.20
16956;BMP180;8594;52.052;8.354;2023-04-07T07:13:27;100597.00;;;10.30
16956;BMP180;8594;52.052;8.354;2023-04-07T07:15:54;100590.00;;;10.10
16956;BMP180;8594;52.052;8.354;2023-04-07T07:18:21;100600.00;;;10.00
16956;BMP180;8594;52.052;8.354;2023-04-07T07:20:48;100600.00;;;9.70
16956;BMP180;8594;52.052;8.354;2023-04-07T07:23:15;100600.00;;;10.20
16956;BMP180;8594;52.052;8.354;2023-04-07T07:25:42;100611.00;;;9.80
16956;BMP180;8594;52.052;8.354;2023-04-07T07:28:10;100599.00;;;9.70
16956;BMP180;8594;52.052;8.354;2023-04-07T07:30:39;100609.00;;;10.00
16956;BMP180;8594;52.052;8.354;2023-04-07T07:33:09;100613.00;;;10.00
16956;BMP180;8594;52.052;8.354;2023-04-07T07:35:36;100609.00;;;10.00
16956;BMP180;8594;52.052;8.354;2023-04-07T07:38:03;100630.00;;;10.00
16956;BMP180;8594;52.052;8.354;2023-04-07T07:40:30;100624.00;;;9.80
16956;BMP180;8594;52.052;8.354;2023-04-07T07:42:57;100624.00;;;10.20
16956;BMP180;8594;52.052;8.354;2023-04-07T07:45:25;100624.00;;;10.20
16956;BMP180;8594;52.052;8.354;2023-04-07T07:47:52;100631.00;;;10.30
16956;BMP180;8594;52.052;8.354;2023-04-07T07:50:19;100629.00;;;10.60
16956;BMP180;8594;52.052;8.354;2023-04-07T07:52:46;100631.00;;;11.00
16956;BMP180;8594;52.052;8.354;2023-04-07T07:55:13;100632.00;;;10.90
16956;BMP180;8594;52.052;8.354;2023-04-07T07:57:40;100632.00;;;10.80
16956;BMP180;8594;52.052;8.354;2023-04-07T08:00:08;100639.00;;;10.70
16956;BMP180;8594;52.052;8.354;2023-04-07T08:02:37;100639.00;;;10.80
16956;BMP180;8594;52.052;8.354;2023-04-07T08:05:05;100639.00;;;11.20
16956;BMP180;8594;52.052;8.354;2023-04-07T08:07:31;100640.00;;;10.90
16956;BMP180;8594;52.052;8.354;2023-04-07T08:09:58;100645.00;;;11.30
16956;BMP180;8594;52.052;8.354;2023-04-07T08:12:25;100639.00;;;11.30
16956;BMP180;8594;52.052;8.354;2023-04-07T08:14:52;100654.00;;;11.10
16956;BMP180;8594;52.052;8.354;2023-04-07T08:17:19;100642.00;;;11.30
16956;BMP180;8594;52.052;8.354;2023-04-07T08:19:47;100652.00;;;11.80
16956;BMP180;8594;52.052;8.354;2023-04-07T08:22:13;100654.00;;;11.90
16956;BMP180;8594;52.052;8.354;2023-04-07T08:24:40;100658.00;;;12.10
16956;BMP180;8594;52.052;8.354;2023-04-07T08:27:07;100651.00;;;12.60
16956;BMP180;8594;52.052;8.354;2023-04-07T08:29:34;100657.00;;;12.90
16956;BMP180;8594;52.052;8.354;2023-04-07T08:32:01;100662.00;;;13.20
16956;BMP180;8594;52.052;8.354;2023-04-07T08:34:28;100663.00;;;12.80
16956;BMP180;8594;52.052;8.354;2023-04-07T08:36:56;100657.00;;;12.30
16956;BMP180;8594;52.052;8.354;2023-04-07T08:39:23;100662.00;;;12.30
16956;BMP180;8594;52.052;8.354;2023-04-07T08:41:51;100665.00;;;12.80
16956;BMP180;8594;52.052;8.354;2023-04-07T08:44:21;100671.00;;;12.70
16956;BMP180;8594;52.052;8.354;2023-04-07T08:46:51;100659.00;;;12.30
16956;BMP180;8594;52.052;8.354;2023-04-07T08:49:23;100670.00;;;12.30
16956;BMP180;8594;52.052;8.354;2023-04-07T08:51:53;100667.00;;;12.30
16956;BMP180;8594;52.052;8.354;2023-04-07T08:54:23;100671.00;;;11.90
16956;BMP180;8594;52.052;8.354;2023-04-07T08:56:50;100675.00;;;11.80
16956;BMP180;8594;52.052;8.354;2023-04-07T08:59:18;100683.00;;;12.20
16956;BMP180;8594;52.052;8.354;2023-04-07T09:01:50;100680.00;;;12.50
16956;BMP180;8594;52.052;8.354;2023-04-07T09:04:18;100670.00;;;12.40
16956;BMP180;8594;52.052;8.354;2023-04-07T09:06:45;100678.00;;;12.20
16956;BMP180;8594;52.052;8.354;2023-04-07T09:09:12;100690.00;;;12.10
16956;BMP180;8594;52.052;8.354;2023-04-07T09:11:40;100679.00;;;12.40
16956;BMP180;8594;52.052;8.354;2023-04-07T09:14:07;100684.00;;;12.50
16956;BMP180;8594;52.052;8.354;2023-04-07T09:16:34;100685.00;;;12.70
16956;BMP180;8594;52.052;8.354;2023-04-07T09:19:01;100698.00;;;12.40
16956;BMP180;8594;52.052;8.354;2023-04-07T09:21:47;100689.00;;;12.50
16956;BMP180;8594;52.052;8.354;2023-04-07T09:24:24;100691.00;;;12.40
16956;BMP180;8594;52.052;8.354;2023-04-07T09:27:08;100690.00;;;12.20
16956;BMP180;8594;52.052;8.354;2023-04-07T09:29:36;100701.00;;;12.00
16956;BMP180;8594;52.052;8.354;2023-04-07T09:32:03;100689.00;;;12.00
16956;BMP180;8594;52.052;8.354;2023-04-07T09:34:32;100691.00;;;12.00
16956;BMP180;8594;52.052;8.354;2023-04-07T09:37:00;100692.00;;;11.90
16956;BMP180;8594;52.052;8.354;2023-04-07T09:39:27;100698.00;;;12.20
16956;BMP180;8594;52.052;8.354;2023-04-07T09:41:56;100702.00;;;12.00
16956;BMP180;8594;52.052;8.354;2023-04-07T09:44:24;100693.00;;;11.90
16956;BMP180;8594;52.052;8.354;2023-04-07T09:46:53;100694.00;;;11.80
16956;BMP180;8594;52.052;8.354;2023-04-07T09:49:22;100701.00;;;11.80
16956;BMP180;8594;52.052;8.354;2023-04-07T09:51:57;100697.00;;;11.90
16956;BMP180;8594;52.052;8.354;2023-04-07T09:54:36;100698.00;;;11.70
16956;BMP180;8594;52.052;8.354;2023-04-07T09:57:06;100695.00;;;12.00
16956;BMP180;8594;52.052;8.354;2023-04-07T09:59:36;100706.00;;;12.10
16956;BMP180;8594;52.052;8.354;2023-04-07T10:02:04;100703.00;;;12.50
16956;BMP180;8594;52.052;8.354;2023-04-07T10:04:31;100706.00;;;12.30
16956;BMP180;8594;52.052;8.354;2023-04-07T10:06:59;100708.00;;;12.00
16956;BMP180;8594;52.052;8.354;2023-04-07T10:09:29;100704.00;;;12.00
16956;BMP180;8594;52.052;8.354;2023-04-07T10:11:58;100704.00;;;11.80
16956;BMP180;8594;52.052;8.354;2023-04-07T10:14:29;100700.00;;;11.90
16956;BMP180;8594;52.052;8.354;2023-04-07T10:16:56;100716.00;;;12.10
16956;BMP180;8594;52.052;8.354;2023-04-07T10:19:24;100710.00;;;12.30
16956;BMP180;8594;52.052;8.354;2023-04-07T10:21:53;100713.00;;;12.40
16956;BMP180;8594;52.052;8.354;2023-04-07T10:24:52;100723.00;;;12.60
16956;BMP180;8594;52.052;8.354;2023-04-07T10:27:28;100727.00;;;12.60
16956;BMP180;8594;52.052;8.354;2023-04-07T10:29:58;100724.00;;;12.40
16956;BMP180;8594;52.052;8.354;2023-04-07T10:32:26;100727.00;;;12.40
16956;BMP180;8594;52.052;8.354;2023-04-07T10:34:59;100728.00;;;12.40
16956;BMP180;8594;52.052;8.354;2023-04-07T10:37:27;100732.00;;;12.70
16956;BMP180;8594;52.052;8.354;2023-04-07T10:40:27;100734.00;;;12.40
16956;BMP180;8594;52.052;8.354;2023-04-07T10:42:54;100727.00;;;12.30
16956;BMP180;8594;52.052;8.354;2023-04-07T10:45:55;100737.00;;;12.90
16956;BMP180;8594;52.052;8.354;2023-04-07T10:48:24;100731.00;;;12.70
16956;BMP180;8594;52.052;8.354;2023-04-07T10:51:16;100731.00;;;12.70
16956;BMP180;8594;52.052;8.354;2023-04-07T10:54:17;100742.00;;;13.00
16956;BMP180;8594;52.052;8.354;2023-04-07T10:57:05;100736.00;;;13.50
16956;BMP180;8594;52.052;8.354;2023-04-07T10:59:35;100734.00;;;13.50
16956;BMP180;8594;52.052;8.354;2023-04-07T11:02:37;100734.00;;;13.40
16956;BMP180;8594;52.052;8.354;2023-04-07T11:05:05;100734.00;;;13.60
16956;BMP180;8594;52.052;8.354;2023-04-07T11:07:48;100752.00;;;13.20
16956;BMP180;8594;52.052;8.354;2023-04-07T11:10:16;100746.00;;;12.90
16956;BMP180;8594;52.052;8.354;2023-04-07T11:12:57;100751.00;;;13.10
16956;BMP180;8594;52.052;8.354;2023-04-07T11:15:24;100745.00;;;13.30
16956;BMP180;8594;52.052;8.354;2023-04-07T11:18:12;100760.00;;;13.70
16956;BMP180;8594;52.052;8.354;2023-04-07T11:20:42;100759.00;;;13.80
16956;BMP180;8594;52.052;8.354;2023-04-07T11:23:09;100750.00;;;14.10
16956;BMP180;8594;52.052;8.354;2023-04-07T11:25:37;100747.00;;;14.20
16956;BMP180;8594;52.052;8.354;2023-04-07T11:28:04;100748.00;;;13.90
16956;BMP180;8594;52.052;8.354;2023-04-07T11:30:31;100755.00;;;14.60
16956;BMP180;8594;52.052;8.354;2023-04-07T11:32:59;100761.00;;;14.50
16956;BMP180;8594;52.052;8.354;2023-04-07T11:35:27;100755.00;;;14.20
16956;BMP180;8594;52.052;8.354;2023-04-07T11:37:59;100762.00;;;14.40
16956;BMP180;8594;52.052;8.354;2023-04-07T11:40:35;100745.00;;;14.70
16956;BMP180;8594;52.052;8.354;2023-04-07T11:43:02;100756.00;;;14.80
16956;BMP180;8594;52.052;8.354;2023-04-07T11:45:40;100752.00;;;14.80
16956;BMP180;8594;52.052;8.354;2023-04-07T11:48:26;100762.00;;;15.00
16956;BMP180;8594;52.052;8.354;2023-04-07T11:50:54;100759.00;;;15.00
16956;BMP180;8594;52.052;8.354;2023-04-07T11:53:28;100742.00;;;14.80
16956;BMP180;8594;52.052;8.354;2023-04-07T11:56:01;100767.00;;;15.10
16956;BMP180;8594;52.052;8.354;2023-04-07T11:58:28;100756.00;;;14.50
16956;BMP180;8594;52.052;8.354;2023-04-07T12:00:56;100766.00;;;14.80
16956;BMP180;8594;52.052;8.354;2023-04-07T12:03:23;100753.00;;;15.30
16956;BMP180;8594;52.052;8.354;2023-04-07T12:05:50;100768.00;;;14.90
16956;BMP180;8594;52.052;8.354;2023-04-07T12:08:18;100766.00;;;14.90
16956;BMP180;8594;52.052;8.354;2023-04-07T12:10:46;100764.00;;;15.20
16956;BMP180;8594;52.052;8.354;2023-04-07T12:13:13;100772.00;;;14.90
16956;BMP180;8594;52.052;8.354;2023-04-07T12:15:40;100780.00;;;14.60
16956;BMP180;8594;52.052;8.354;2023-04-07T12:18:08;100774.00;;;15.10
16956;BMP180;8594;52.052;8.354;2023-04-07T12:20:40;100779.00;;;14.70
16956;BMP180;8594;52.052;8.354;2023-04-07T12:23:07;100783.00;;;14.90
16956;BMP180;8594;52.052;8.354;2023-04-07T12:25:35;100777.00;;;15.40
16956;BMP180;8594;52.052;8.354;2023-04-07T12:28:02;100774.00;;;15.30
16956;BMP180;8594;52.052;8.354;2023-04-07T12:30:28;100786.00;;;15.80
16956;BMP180;8594;52.052;8.354;2023-04-07T12:32:55;100779.00;;;15.80
16956;BMP180;8594;52.052;8.354;2023-04-07T12:35:22;100782.00;;;15.80
16956;BMP180;8594;52.052;8.354;2023-04-07T12:37:49;100782.00;;;15.70
16956;BMP180;8594;52.052;8.354;2023-04-07T12:40:17;100787.00;;;15.90
16956;BMP180;8594;52.052;8.354;2023-04-07T12:42:45;100796.00;;;16.40
16956;BMP180;8594;52.052;8.354;2023-04-07T12:45:12;100788.00;;;16.70
16956;BMP180;8594;52.052;8.354;2023-04-07T12:47:39;100796.00;;;16.60
16956;BMP180;8594;52.052;8.354;2023-04-07T12:50:07;100793.00;;;16.20
16956;BMP180;8594;52.052;8.354;2023-04-07T12:52:34;100794.00;;;16.60
16956;BMP180;8594;52.052;8.354;2023-04-07T12:55:01;100794.00;;;16.80
16956;BMP180;8594;52.052;8.354;2023-04-07T12:57:27;100791.00;;;16.60
16956;BMP180;8594;52.052;8.354;2023-04-07T12:59:55;100793.00;;;16.70
16956;BMP180;8594;52.052;8.354;2023-04-07T13:02:22;100795.00;;;16.70
16956;BMP180;8594;52.052;8.354;2023-04-07T13:04:49;100797.00;;;16.80
16956;BMP180;8594;52.052;8.354;2023-04-07T13:07:16;100793.00;;;16.40
16956;BMP180;8594;52.052;8.354;2023-04-07T13:09:43;100798.00;;;16.50
16956;BMP180;8594;52.052;8.354;2023-04-07T13:12:11;100799.00;;;16.50
16956;BMP180;8594;52.052;8.354;2023-04-07T13:14:39;100799.00;;;16.60
16956;BMP180;8594;52.052;8.354;2023-04-07T13:17:08;100804.00;;;16.80
16956;BMP180;8594;52.052;8.354;2023-04-07T13:19:35;100787.00;;;16.40
16956;BMP180;8594;52.052;8.354;2023-04-07T13:22:02;100800.00;;;16.50
16956;BMP180;8594;52.052;8.354;2023-04-07T13:24:28;100800.00;;;16.70
16956;BMP180;8594;52.052;8.354;2023-04-07T13:26:55;100802.00;;;16.80
16956;BMP180;8594;52.052;8.354;2023-04-07T13:29:23;100797.00;;;17.00
16956;BMP180;8594;52.052;8.354;2023-04-07T13:31:50;100798.00;;;16.40
16956;BMP180;8594;52.052;8.354;2023-04-07T13:34:18;100797.00;;;16.50
16956;BMP180;8594;52.052;8.354;2023-04-07T13:36:45;100800.00;;;16.60
16956;BMP180;8594;52.052;8.354;2023-04-07T13:39:12;100816.00;;;17.00
16956;BMP180;8594;52.052;8.354;2023-04-07T13:41:39;100808.00;;;16.80
16956;BMP180;8594;52.052;8.354;2023-04-07T13:44:06;100801.00;;;16.70
16956;BMP180;8594;52.052;8.354;2023-04-07T13:46:32;100804.00;;;16.30
16956;BMP180;8594;52.052;8.354;2023-04-07T13:48:59;100814.00;;;15.90
16956;BMP180;8594;52.052;8.354;2023-04-07T13:51:28;100812.00;;;16.20
16956;BMP180;8594;52.052;8.354;2023-04-07T13:53:54;100814.00;;;16.80
16956;BMP180;8594;52.052;8.354;2023-04-07T13:56:22;100813.00;;;16.20
16956;BMP180;8594;52.052;8.354;2023-04-07T13:58:49;100810.00;;;16.60
16956;BMP180;8594;52.052;8.354;2023-04-07T14:01:16;100808.00;;;16.70
16956;BMP180;8594;52.052;8.354;2023-04-07T14:03:43;100809.00;;;16.60
16956;BMP180;8594;52.052;8.354;2023-04-07T14:06:10;100821.00;;;16.70
16956;BMP180;8594;52.052;8.354;2023-04-07T14:08:39;100811.00;;;15.70
16956;BMP180;8594;52.052;8.354;2023-04-07T14:11:06;100801.00;;;16.60
16956;BMP180;8594;52.052;8.354;2023-04-07T14:13:32;100797.00;;;16.80
16956;BMP180;8594;52.052;8.354;2023-04-07T14:16:00;100792.00;;;16.60
16956;BMP180;8594;52.052;8.354;2023-04-07T14:18:27;100793.00;;;16.90
16956;BMP180;8594;52.052;8.354;2023-04-07T14:20:54;100797.00;;;17.20
16956;BMP180;8594;52.052;8.354;2023-04-07T14:23:21;100797.00;;;17.10